Aurora, Oregon
Current Conditions -  °F | °C
As of 1:53 PM on Saturday 25 Oct 2014 (Local Time) from KUAO Reporting Station
NA  
Wind Chill: 63°   Ceiling: NA
Heat Index: 63°   Visibility: 10mi
Dew Point: 50°   Wind: 23mph
Humidity: 63%   Direction: 180°S
Pressure: 29.41"   Gusts: 40mph
Location:  45.23°N, 122.76°W
Report Text: KUAO 252053Z AUTO 18020G35KT 10SM 17/10 A2941 RMK AO2 PK WND 18035/2046 RAB1954E03 SLP958 P0000 60000 T01720100 $
Loading
Personal Weather Stations






























Interactive Weather Map New forecast layout! Learn more

10-Day Weather Forecast

Advertisements
Track Severe Weather on mobile